Terminal Aerodrome Forecast
Issued by NWS

Home | Current Version | Previous Version | Graphics & Text | Print | Product List | Glossary On
Versions: 1 2 3 4 5 6 7 8 9 10 11 12 13 14 15 16 17 18 19 20 21 22 23 24 25 26 27 28 29 30 31 32 33 34 35
000
FTUS43 KLOT 261359 AAA
TAFMDW
TAF AMD
KMDW 261359Z 2614/2712 17011KT P6SM OVC015
     FM261700 18012G20KT 6SM -SHRA BKN020
      TEMPO 2619/2621 3SM TSRA OVC020CB
     FM262300 22014G22KT P6SM SCT020 BKN035
     FM270500 23011KT P6SM SCT035 BKN250=

USA.gov is the U.S. government's official web portal to all federal, state and local government web resources and services.